IBS1705 LEMD-LEIB
Flight info
| Callsign | IBS1705 |
|---|---|
| Flight time | 0h 51m |
| Altitude | 32000 |
| Route | NANDO T257 LASPO Z224 VARUT |
| Aircraft | A320/M-SDE3FGHIRWY/LB1 |
Departure
| Time | 2026-05-03 21:23 |
|---|---|
| Airport | Adolfo Suárez Madrid–Barajas Airport (LEMD) |
Arrival
| Time | 2026-05-03 22:15 |
|---|---|
| Airport | Ibiza Airport (LEIB) |
| Time | Latitude | Longitude | Altitude | Speed | Heading |
|---|---|---|---|---|---|
| 2026-05-03 21:03 | 40.49495 | -3.58970 | 2022 ft | 0 kts | 271° |
| 2026-05-03 21:13 | 40.49495 | -3.58943 | 2015 ft | 4 kts | 261° |
| 2026-05-03 21:13 | 40.49503 | -3.58910 | 2034 ft | 4 kts | 236° |
| 2026-05-03 21:14 | 40.49521 | -3.58887 | 2033 ft | 4 kts | 196° |
| 2026-05-03 21:14 | 40.49532 | -3.58884 | 2028 ft | 0 kts | 179° |
| 2026-05-03 21:17 | 40.49506 | -3.58884 | 2028 ft | 6 kts | 179° |
| 2026-05-03 21:18 | 40.49467 | -3.58884 | 2022 ft | 5 kts | 179° |
| 2026-05-03 21:18 | 40.49439 | -3.58883 | 2022 ft | 3 kts | 179° |
| 2026-05-03 21:18 | 40.49421 | -3.58883 | 2026 ft | 2 kts | 179° |
| 2026-05-03 21:18 | 40.49409 | -3.58883 | 2022 ft | 5 kts | 179° |
| 2026-05-03 21:19 | 40.49344 | -3.58882 | 2032 ft | 11 kts | 179° |
| 2026-05-03 21:19 | 40.49264 | -3.58871 | 2029 ft | 12 kts | 144° |
| 2026-05-03 21:19 | 40.49240 | -3.58777 | 2025 ft | 11 kts | 89° |
| 2026-05-03 21:19 | 40.49241 | -3.58686 | 2022 ft | 9 kts | 90° |
| 2026-05-03 21:20 | 40.49241 | -3.58609 | 2028 ft | 8 kts | 90° |
| 2026-05-03 21:20 | 40.49242 | -3.58527 | 2018 ft | 13 kts | 86° |
| 2026-05-03 21:20 | 40.49247 | -3.58374 | 2014 ft | 19 kts | 94° |
| 2026-05-03 21:20 | 40.49244 | -3.58150 | 2007 ft | 24 kts | 89° |
| 2026-05-03 21:21 | 40.49245 | -3.58004 | 2001 ft | 17 kts | 91° |
| 2026-05-03 21:21 | 40.49244 | -3.57832 | 1995 ft | 21 kts | 89° |
| 2026-05-03 21:21 | 40.49245 | -3.57646 | 1988 ft | 14 kts | 86° |
| 2026-05-03 21:21 | 40.49282 | -3.57523 | 1985 ft | 15 kts | 59° |
| 2026-05-03 21:22 | 40.49356 | -3.57451 | 1983 ft | 14 kts | 359° |
| 2026-05-03 21:22 | 40.49476 | -3.57454 | 1984 ft | 32 kts | 359° |
| 2026-05-03 21:22 | 40.49975 | -3.57459 | 1987 ft | 107 kts | 0° |
| 2026-05-03 21:22 | 40.50934 | -3.57467 | 1996 ft | 165 kts | 0° |
| 2026-05-03 21:23 | 40.52129 | -3.57449 | 2560 ft | 171 kts | 1° |
| 2026-05-03 21:23 | 40.53307 | -3.57423 | 3377 ft | 168 kts | 359° |
| 2026-05-03 21:23 | 40.54472 | -3.57428 | 4129 ft | 166 kts | 358° |
| 2026-05-03 21:23 | 40.55619 | -3.57240 | 4734 ft | 168 kts | 13° |
| 2026-05-03 21:24 | 40.56740 | -3.56834 | 5260 ft | 172 kts | 13° |
| 2026-05-03 21:24 | 40.57981 | -3.56379 | 5546 ft | 194 kts | 13° |
| 2026-05-03 21:24 | 40.59338 | -3.55878 | 5797 ft | 216 kts | 14° |
| 2026-05-03 21:24 | 40.60875 | -3.55307 | 6114 ft | 238 kts | 14° |
| 2026-05-03 21:25 | 40.62485 | -3.54703 | 6876 ft | 242 kts | 14° |
| 2026-05-03 21:25 | 40.64145 | -3.54210 | 7610 ft | 247 kts | 3° |
| 2026-05-03 21:25 | 40.65880 | -3.54053 | 8341 ft | 253 kts | 1° |
| 2026-05-03 21:25 | 40.67657 | -3.53898 | 9095 ft | 259 kts | 2° |
| 2026-05-03 21:26 | 40.69445 | -3.53375 | 9833 ft | 268 kts | 22° |
| 2026-05-03 21:26 | 40.71054 | -3.52050 | 10353 ft | 284 kts | 43° |
| 2026-05-03 21:26 | 40.72267 | -3.49936 | 10656 ft | 305 kts | 67° |
| 2026-05-03 21:26 | 40.72757 | -3.47157 | 10918 ft | 322 kts | 94° |
| 2026-05-03 21:27 | 40.72223 | -3.44235 | 11185 ft | 335 kts | 122° |
| 2026-05-03 21:27 | 40.70922 | -3.41644 | 11733 ft | 342 kts | 129° |
| 2026-05-03 21:27 | 40.69550 | -3.39054 | 12464 ft | 347 kts | 129° |
| 2026-05-03 21:27 | 40.68161 | -3.36428 | 13215 ft | 351 kts | 129° |
| 2026-05-03 21:28 | 40.66757 | -3.33766 | 13953 ft | 356 kts | 129° |
| 2026-05-03 21:28 | 40.65341 | -3.31071 | 14624 ft | 359 kts | 129° |
| 2026-05-03 21:28 | 40.63925 | -3.28343 | 15283 ft | 363 kts | 128° |
| 2026-05-03 21:28 | 40.62501 | -3.25566 | 15934 ft | 367 kts | 128° |
| 2026-05-03 21:29 | 40.61072 | -3.22765 | 16585 ft | 370 kts | 128° |
| 2026-05-03 21:29 | 40.59625 | -3.19934 | 17236 ft | 374 kts | 128° |
| 2026-05-03 21:29 | 40.58178 | -3.17116 | 17870 ft | 378 kts | 128° |
| 2026-05-03 21:29 | 40.56697 | -3.14238 | 18485 ft | 381 kts | 128° |
| 2026-05-03 21:30 | 40.55199 | -3.11332 | 19033 ft | 385 kts | 129° |
| 2026-05-03 21:30 | 40.53682 | -3.08395 | 19580 ft | 389 kts | 129° |
| 2026-05-03 21:30 | 40.52150 | -3.05441 | 20133 ft | 392 kts | 129° |
| 2026-05-03 21:30 | 40.50623 | -3.02503 | 20645 ft | 396 kts | 130° |
| 2026-05-03 21:31 | 40.49057 | -2.99494 | 21176 ft | 400 kts | 130° |
| 2026-05-03 21:31 | 40.47476 | -2.96456 | 21730 ft | 404 kts | 130° |
| 2026-05-03 21:31 | 40.45882 | -2.93392 | 22278 ft | 407 kts | 130° |
| 2026-05-03 21:31 | 40.44279 | -2.90307 | 22825 ft | 410 kts | 130° |
| 2026-05-03 21:32 | 40.42662 | -2.87197 | 23339 ft | 414 kts | 130° |
| 2026-05-03 21:32 | 40.41031 | -2.84068 | 23810 ft | 417 kts | 130° |
| 2026-05-03 21:32 | 40.39385 | -2.80907 | 24232 ft | 420 kts | 130° |
| 2026-05-03 21:32 | 40.37748 | -2.77767 | 24636 ft | 423 kts | 130° |
| 2026-05-03 21:33 | 40.36076 | -2.74560 | 25038 ft | 426 kts | 130° |
| 2026-05-03 21:33 | 40.34392 | -2.71338 | 25424 ft | 429 kts | 130° |
| 2026-05-03 21:33 | 40.32695 | -2.68098 | 25813 ft | 432 kts | 130° |
| 2026-05-03 21:33 | 40.30988 | -2.64846 | 26185 ft | 434 kts | 130° |
| 2026-05-03 21:34 | 40.29269 | -2.61575 | 26553 ft | 437 kts | 130° |
| 2026-05-03 21:34 | 40.27536 | -2.58281 | 26924 ft | 440 kts | 130° |
| 2026-05-03 21:34 | 40.25817 | -2.55010 | 27282 ft | 442 kts | 130° |
| 2026-05-03 21:34 | 40.24064 | -2.51679 | 27633 ft | 445 kts | 130° |
| 2026-05-03 21:35 | 40.22297 | -2.48327 | 27957 ft | 448 kts | 130° |
| 2026-05-03 21:35 | 40.20522 | -2.44959 | 28272 ft | 451 kts | 130° |
| 2026-05-03 21:35 | 40.18735 | -2.41570 | 28590 ft | 454 kts | 130° |
| 2026-05-03 21:35 | 40.16938 | -2.38162 | 28920 ft | 456 kts | 130° |
| 2026-05-03 21:36 | 40.15127 | -2.34738 | 29245 ft | 459 kts | 130° |
| 2026-05-03 21:36 | 40.13302 | -2.31297 | 29543 ft | 461 kts | 130° |
| 2026-05-03 21:36 | 40.11472 | -2.27848 | 29852 ft | 463 kts | 130° |
| 2026-05-03 21:36 | 40.09632 | -2.24383 | 30155 ft | 465 kts | 130° |
| 2026-05-03 21:37 | 40.07782 | -2.20900 | 30399 ft | 467 kts | 130° |
| 2026-05-03 21:37 | 40.05946 | -2.17454 | 30631 ft | 469 kts | 130° |
| 2026-05-03 21:37 | 40.04075 | -2.13946 | 30822 ft | 471 kts | 130° |
| 2026-05-03 21:37 | 40.02192 | -2.10419 | 31048 ft | 473 kts | 130° |
| 2026-05-03 21:38 | 40.00302 | -2.06882 | 31252 ft | 475 kts | 130° |
| 2026-05-03 21:38 | 39.98404 | -2.03339 | 31479 ft | 476 kts | 131° |
| 2026-05-03 21:38 | 39.96504 | -1.99796 | 31796 ft | 476 kts | 131° |
| 2026-05-03 21:38 | 39.94621 | -1.96292 | 32002 ft | 476 kts | 131° |
| 2026-05-03 21:39 | 39.92744 | -1.92791 | 32045 ft | 464 kts | 131° |
| 2026-05-03 21:39 | 39.90910 | -1.89365 | 32017 ft | 458 kts | 130° |
| 2026-05-03 21:39 | 39.87257 | -1.82586 | 32043 ft | 455 kts | 131° |
| 2026-05-03 21:40 | 39.83625 | -1.75888 | 32040 ft | 455 kts | 131° |
| 2026-05-03 21:40 | 39.79965 | -1.69147 | 32041 ft | 455 kts | 131° |
| 2026-05-03 21:41 | 39.76325 | -1.62445 | 32043 ft | 457 kts | 131° |
| 2026-05-03 21:41 | 39.72651 | -1.55668 | 32029 ft | 458 kts | 130° |
| 2026-05-03 21:42 | 39.69441 | -1.48446 | 32007 ft | 462 kts | 124° |
| 2026-05-03 21:42 | 39.66291 | -1.41155 | 32003 ft | 462 kts | 124° |
| 2026-05-03 21:43 | 39.63160 | -1.33931 | 32001 ft | 462 kts | 125° |
| 2026-05-03 21:43 | 39.60004 | -1.26662 | 31999 ft | 461 kts | 125° |
| 2026-05-03 21:44 | 39.57379 | -1.20636 | 32004 ft | 462 kts | 125° |
| 2026-05-03 21:44 | 39.54211 | -1.13377 | 31980 ft | 463 kts | 126° |
| 2026-05-03 21:45 | 39.51018 | -1.06083 | 31989 ft | 466 kts | 126° |
| 2026-05-03 21:45 | 39.47835 | -0.98811 | 32001 ft | 468 kts | 125° |
| 2026-05-03 21:46 | 39.44624 | -0.91486 | 32007 ft | 468 kts | 126° |
| 2026-05-03 21:46 | 39.41398 | -0.84139 | 32012 ft | 468 kts | 126° |
| 2026-05-03 21:47 | 39.38189 | -0.76841 | 32007 ft | 469 kts | 126° |
| 2026-05-03 21:47 | 39.34948 | -0.69511 | 31973 ft | 469 kts | 126° |
| 2026-05-03 21:48 | 39.31665 | -0.62131 | 32020 ft | 475 kts | 126° |
| 2026-05-03 21:48 | 39.28526 | -0.54659 | 32015 ft | 481 kts | 118° |
| 2026-05-03 21:49 | 39.26562 | -0.46323 | 32013 ft | 487 kts | 109° |
| 2026-05-03 21:49 | 39.24805 | -0.37879 | 32007 ft | 486 kts | 110° |
| 2026-05-03 21:50 | 39.23040 | -0.29434 | 31997 ft | 486 kts | 110° |
| 2026-05-03 21:50 | 39.21273 | -0.21066 | 31997 ft | 486 kts | 110° |
| 2026-05-03 21:51 | 39.19491 | -0.12640 | 31996 ft | 486 kts | 110° |
| 2026-05-03 21:51 | 39.17709 | -0.04215 | 31999 ft | 487 kts | 110° |
| 2026-05-03 21:52 | 39.15915 | 0.04219 | 31878 ft | 487 kts | 110° |
| 2026-05-03 21:52 | 39.15021 | 0.08404 | 31066 ft | 491 kts | 109° |
| 2026-05-03 21:52 | 39.14120 | 0.12632 | 30464 ft | 487 kts | 109° |
| 2026-05-03 21:53 | 39.13226 | 0.16834 | 29788 ft | 485 kts | 109° |
| 2026-05-03 21:53 | 39.12335 | 0.21011 | 29145 ft | 480 kts | 109° |
| 2026-05-03 21:53 | 39.11451 | 0.25137 | 28543 ft | 475 kts | 109° |
| 2026-05-03 21:53 | 39.10583 | 0.29163 | 27944 ft | 471 kts | 109° |
| 2026-05-03 21:54 | 39.09706 | 0.33215 | 27360 ft | 466 kts | 109° |
| 2026-05-03 21:54 | 39.08836 | 0.37223 | 26783 ft | 462 kts | 109° |
| 2026-05-03 21:54 | 39.07973 | 0.41203 | 26222 ft | 457 kts | 109° |
| 2026-05-03 21:54 | 39.07122 | 0.45123 | 25730 ft | 451 kts | 109° |
| 2026-05-03 21:55 | 39.06282 | 0.48996 | 25259 ft | 446 kts | 109° |
| 2026-05-03 21:55 | 39.05460 | 0.52770 | 24796 ft | 440 kts | 109° |
| 2026-05-03 21:55 | 39.04635 | 0.56546 | 24327 ft | 436 kts | 109° |
| 2026-05-03 21:55 | 39.03818 | 0.60280 | 23858 ft | 431 kts | 109° |
| 2026-05-03 21:56 | 39.03006 | 0.63993 | 23341 ft | 428 kts | 110° |
| 2026-05-03 21:56 | 39.02312 | 0.67703 | 22852 ft | 426 kts | 102° |
| 2026-05-03 21:56 | 39.02052 | 0.71493 | 22374 ft | 424 kts | 96° |
| 2026-05-03 21:56 | 39.01890 | 0.75220 | 21895 ft | 421 kts | 96° |
| 2026-05-03 21:57 | 39.01729 | 0.78975 | 21403 ft | 417 kts | 96° |
| 2026-05-03 21:57 | 39.01567 | 0.82687 | 20921 ft | 414 kts | 96° |
| 2026-05-03 21:57 | 39.01402 | 0.86369 | 20430 ft | 411 kts | 96° |
| 2026-05-03 21:57 | 39.01233 | 0.90036 | 19943 ft | 409 kts | 96° |
| 2026-05-03 21:58 | 39.01066 | 0.93677 | 19458 ft | 407 kts | 96° |
| 2026-05-03 21:58 | 39.00901 | 0.97262 | 18979 ft | 405 kts | 96° |
| 2026-05-03 21:58 | 39.00736 | 1.00873 | 18495 ft | 404 kts | 96° |
| 2026-05-03 21:58 | 39.00568 | 1.04481 | 17980 ft | 402 kts | 96° |
| 2026-05-03 21:59 | 39.00400 | 1.08056 | 17493 ft | 399 kts | 96° |
| 2026-05-03 21:59 | 39.00232 | 1.11599 | 17034 ft | 396 kts | 96° |
| 2026-05-03 21:59 | 39.00064 | 1.15119 | 16570 ft | 392 kts | 96° |
| 2026-05-03 21:59 | 39.00107 | 1.18624 | 16127 ft | 393 kts | 85° |
| 2026-05-03 22:00 | 39.00626 | 1.22074 | 15670 ft | 392 kts | 79° |
| 2026-05-03 22:00 | 39.01209 | 1.25449 | 15219 ft | 390 kts | 79° |
| 2026-05-03 22:00 | 39.01792 | 1.28851 | 14769 ft | 389 kts | 79° |
| 2026-05-03 22:00 | 39.02369 | 1.32247 | 14313 ft | 388 kts | 79° |
| 2026-05-03 22:01 | 39.02940 | 1.35624 | 13999 ft | 383 kts | 79° |
| 2026-05-03 22:01 | 39.03496 | 1.38919 | 13879 ft | 371 kts | 79° |
| 2026-05-03 22:01 | 39.04032 | 1.42107 | 13753 ft | 358 kts | 79° |
| 2026-05-03 22:01 | 39.04551 | 1.45202 | 13617 ft | 349 kts | 79° |
| 2026-05-03 22:02 | 39.05027 | 1.48217 | 13489 ft | 339 kts | 81° |
| 2026-05-03 22:02 | 39.05452 | 1.51164 | 13356 ft | 330 kts | 82° |
| 2026-05-03 22:02 | 39.05845 | 1.54006 | 13220 ft | 321 kts | 82° |
| 2026-05-03 22:02 | 39.06230 | 1.56810 | 13074 ft | 314 kts | 82° |
| 2026-05-03 22:03 | 39.06610 | 1.59568 | 12725 ft | 311 kts | 81° |
| 2026-05-03 22:03 | 39.07108 | 1.62260 | 12189 ft | 309 kts | 69° |
| 2026-05-03 22:03 | 39.08027 | 1.64739 | 11669 ft | 305 kts | 61° |
| 2026-05-03 22:03 | 39.09016 | 1.67145 | 11161 ft | 302 kts | 61° |
| 2026-05-03 22:04 | 39.09992 | 1.69522 | 10667 ft | 299 kts | 61° |
| 2026-05-03 22:04 | 39.10957 | 1.71868 | 10175 ft | 295 kts | 61° |
| 2026-05-03 22:04 | 39.11807 | 1.74265 | 9485 ft | 297 kts | 78° |
| 2026-05-03 22:04 | 39.11749 | 1.76884 | 8730 ft | 293 kts | 113° |
| 2026-05-03 22:05 | 39.10656 | 1.78923 | 8242 ft | 273 kts | 148° |
| 2026-05-03 22:05 | 39.09065 | 1.80095 | 7850 ft | 257 kts | 158° |
| 2026-05-03 22:05 | 39.07444 | 1.80839 | 7457 ft | 238 kts | 181° |
| 2026-05-03 22:05 | 39.05892 | 1.80544 | 7126 ft | 218 kts | 208° |
| 2026-05-03 22:06 | 39.04730 | 1.79425 | 6831 ft | 204 kts | 234° |
| 2026-05-03 22:06 | 39.04043 | 1.77895 | 6561 ft | 195 kts | 244° |
| 2026-05-03 22:06 | 39.03435 | 1.76361 | 6314 ft | 188 kts | 244° |
| 2026-05-03 22:06 | 39.02853 | 1.74904 | 6036 ft | 178 kts | 244° |
| 2026-05-03 22:07 | 39.02296 | 1.73534 | 5795 ft | 168 kts | 243° |
| 2026-05-03 22:07 | 39.01761 | 1.72253 | 5596 ft | 157 kts | 243° |
| 2026-05-03 22:07 | 39.01250 | 1.71033 | 5397 ft | 153 kts | 242° |
| 2026-05-03 22:07 | 39.00719 | 1.69835 | 5274 ft | 161 kts | 241° |
| 2026-05-03 22:08 | 39.00160 | 1.68547 | 5072 ft | 166 kts | 242° |
| 2026-05-03 22:08 | 38.99610 | 1.67233 | 4861 ft | 167 kts | 242° |
| 2026-05-03 22:08 | 38.99069 | 1.65926 | 4645 ft | 168 kts | 242° |
| 2026-05-03 22:08 | 38.98526 | 1.64605 | 4423 ft | 167 kts | 242° |
| 2026-05-03 22:09 | 38.97985 | 1.63286 | 4198 ft | 166 kts | 242° |
| 2026-05-03 22:09 | 38.97446 | 1.61974 | 3978 ft | 164 kts | 242° |
| 2026-05-03 22:09 | 38.96916 | 1.60684 | 3769 ft | 163 kts | 241° |
| 2026-05-03 22:10 | 38.95853 | 1.58096 | 3346 ft | 163 kts | 241° |
| 2026-05-03 22:10 | 38.95325 | 1.56812 | 3123 ft | 163 kts | 240° |
| 2026-05-03 22:10 | 38.94802 | 1.55539 | 2911 ft | 162 kts | 240° |
| 2026-05-03 22:10 | 38.94276 | 1.54260 | 2701 ft | 161 kts | 240° |
| 2026-05-03 22:11 | 38.93776 | 1.53043 | 2491 ft | 147 kts | 240° |
| 2026-05-03 22:11 | 38.93310 | 1.51912 | 2307 ft | 141 kts | 240° |
| 2026-05-03 22:11 | 38.92858 | 1.50815 | 2143 ft | 138 kts | 239° |
| 2026-05-03 22:11 | 38.92412 | 1.49732 | 1943 ft | 136 kts | 240° |
| 2026-05-03 22:12 | 38.91967 | 1.48654 | 1761 ft | 137 kts | 239° |
| 2026-05-03 22:12 | 38.91522 | 1.47574 | 1578 ft | 136 kts | 239° |
| 2026-05-03 22:12 | 38.91087 | 1.46520 | 1405 ft | 134 kts | 239° |
| 2026-05-03 22:12 | 38.90648 | 1.45456 | 1211 ft | 134 kts | 239° |
| 2026-05-03 22:13 | 38.90211 | 1.44397 | 1039 ft | 135 kts | 240° |
| 2026-05-03 22:13 | 38.89771 | 1.43332 | 864 ft | 135 kts | 240° |
| 2026-05-03 22:13 | 38.89331 | 1.42270 | 679 ft | 135 kts | 241° |
| 2026-05-03 22:13 | 38.88886 | 1.41200 | 441 ft | 135 kts | 242° |
| 2026-05-03 22:14 | 38.88446 | 1.40121 | 271 ft | 137 kts | 242° |
| 2026-05-03 22:14 | 38.88008 | 1.39053 | 107 ft | 137 kts | 242° |
| 2026-05-03 22:14 | 38.87574 | 1.38014 | 14 ft | 122 kts | 242° |
| 2026-05-03 22:14 | 38.87248 | 1.37226 | 11 ft | 84 kts | 242° |
| 2026-05-03 22:15 | 38.87110 | 1.36875 | 10 ft | 13 kts | 268° |
| 2026-05-03 22:15 | 38.87104 | 1.36757 | 9 ft | 14 kts | 265° |
| 2026-05-03 22:15 | 38.87104 | 1.36641 | 8 ft | 11 kts | 274° |
| 2026-05-03 22:15 | 38.87122 | 1.36559 | 9 ft | 9 kts | 321° |
| 2026-05-03 22:16 | 38.87167 | 1.36580 | 9 ft | 7 kts | 55° |
| 2026-05-03 22:16 | 38.87191 | 1.36628 | 10 ft | 6 kts | 59° |
| 2026-05-03 22:16 | 38.87209 | 1.36669 | 9 ft | 5 kts | 62° |
| 2026-05-03 22:16 | 38.87223 | 1.36704 | 10 ft | 4 kts | 63° |
| 2026-05-03 22:17 | 38.87254 | 1.36783 | 9 ft | 17 kts | 63° |
| 2026-05-03 22:17 | 38.87311 | 1.36858 | 9 ft | 2 kts | 326° |
| 2026-05-03 22:17 | 38.87314 | 1.36855 | 9 ft | 2 kts | 326° |
| 2026-05-03 22:17 | 38.87360 | 1.36825 | 10 ft | 12 kts | 334° |
| 2026-05-03 22:18 | 38.87438 | 1.36799 | 8 ft | 11 kts | 35° |
| 2026-05-03 22:18 | 38.87478 | 1.36898 | 9 ft | 12 kts | 63° |
| 2026-05-03 22:18 | 38.87514 | 1.36985 | 8 ft | 11 kts | 62° |
| 2026-05-03 22:18 | 38.87531 | 1.37027 | 8 ft | 0 kts | 62° |
| 2026-05-03 22:19 | 38.87537 | 1.37040 | 10 ft | 4 kts | 62° |
| 2026-05-03 22:19 | 38.87568 | 1.37087 | 8 ft | 7 kts | 12° |
| 2026-05-03 22:19 | 38.87611 | 1.37065 | 9 ft | 6 kts | 333° |
| 2026-05-03 22:19 | 38.87619 | 1.37060 | 8 ft | 0 kts | 332° |
| 2026-05-03 22:20 | 38.87624 | 1.37057 | 8 ft | 0 kts | 333° |